Time;durP1;ratioP1;P1;durP2;ratioP2;P2;SDS_P1;SDS_P2;PMS_P1;PMS_P2;Temp;Humidity;BMP_temperature;BMP_pressure;BME280_temperature;BME280_humidity;BME280_pressure;Samples;Min_cycle;Max_cycle;Signal;HPM_P1;HPM_P2
2021/05/16 00:01:35;;;;;;;8.70;5.75;;;;;;;10.39;83.25;100137.12;1711205;81;21643;-73
2021/05/16 00:04:03;;;;;;;9.55;6.47;;;;;;;10.38;83.19;100130.98;1712428;82;21132;-73
2021/05/16 00:06:29;;;;;;;7.30;6.20;;;;;;;10.38;83.14;100132.33;1702087;82;21132;-73
2021/05/16 00:08:58;;;;;;;7.17;5.80;;;;;;;10.39;83.13;100131.78;1711333;82;21081;-74
2021/05/16 00:11:25;;;;;;;8.35;6.30;;;;;;;10.39;83.12;100138.46;1711371;81;21647;-71
2021/05/16 00:13:52;;;;;;;8.43;6.00;;;;;;;10.38;83.09;100139.00;1715101;82;21074;-71
2021/05/16 00:16:19;;;;;;;5.80;5.12;;;;;;;10.38;82.95;100138.20;1718212;82;21188;-71
2021/05/16 00:18:46;;;;;;;7.50;5.65;;;;;;;10.33;82.83;100137.14;1724522;82;21098;-71
2021/05/16 00:21:12;;;;;;;6.72;5.20;;;;;;;10.30;82.74;100135.00;1707378;81;21351;-71
2021/05/16 00:23:39;;;;;;;7.33;5.65;;;;;;;10.27;82.64;100140.06;1713766;82;21742;-71
2021/05/16 00:26:07;;;;;;;6.85;5.80;;;;;;;10.26;82.62;100133.10;1719445;82;21089;-70
2021/05/16 00:28:34;;;;;;;8.05;5.72;;;;;;;10.25;82.59;100138.16;1712232;82;22282;-71
2021/05/16 00:31:01;;;;;;;11.35;6.08;;;;;;;10.22;82.58;100142.14;1703804;82;21328;-70
2021/05/16 00:33:28;;;;;;;7.67;5.72;;;;;;;10.18;82.64;100141.08;1720792;82;22272;-70
2021/05/16 00:35:55;;;;;;;7.28;5.40;;;;;;;10.17;82.88;100135.48;1724073;82;21109;-70
2021/05/16 00:38:22;;;;;;;6.72;5.40;;;;;;;10.16;83.15;100141.86;1733476;82;21627;-70
2021/05/16 00:40:49;;;;;;;6.33;5.03;;;;;;;10.13;83.31;100138.39;1707948;82;21131;-71
2021/05/16 00:43:16;;;;;;;7.08;5.55;;;;;;;10.14;83.41;100133.88;1709156;81;21123;-71
2021/05/16 00:45:47;;;;;;;7.25;5.40;;;;;;;10.16;83.41;100137.06;1730198;82;21169;-70
2021/05/16 00:48:11;;;;;;;8.03;5.55;;;;;;;10.18;83.38;100136.28;1705018;82;21086;-70
2021/05/16 00:50:41;;;;;;;6.20;5.28;;;;;;;10.16;83.29;100139.73;1704786;82;21088;-70
2021/05/16 00:53:09;;;;;;;6.03;5.25;;;;;;;10.15;83.23;100140.80;1721220;82;21085;-71
2021/05/16 00:55:36;;;;;;;7.90;5.30;;;;;;;10.15;83.22;100147.48;1712121;82;21145;-70
2021/05/16 00:58:05;;;;;;;7.30;5.17;;;;;;;10.15;83.21;100146.94;1723465;82;21010;-70
2021/05/16 01:00:40;;;;;;;7.75;5.25;;;;;;;10.15;83.14;100151.48;1715281;82;21089;-71
2021/05/16 01:03:10;;;;;;;6.37;5.75;;;;;;;10.14;83.09;100149.89;1708365;82;21735;-70
2021/05/16 01:05:38;;;;;;;8.15;5.58;;;;;;;10.12;83.03;100138.13;1692164;82;21112;-70
2021/05/16 01:08:06;;;;;;;7.22;5.42;;;;;;;10.12;82.95;100144.00;1716206;82;21089;-71
2021/05/16 01:10:33;;;;;;;6.78;5.50;;;;;;;10.12;82.90;100144.00;1714686;82;21660;-71
2021/05/16 01:13:00;;;;;;;6.72;5.03;;;;;;;10.10;82.82;100145.58;1705715;81;21137;-71
2021/05/16 01:15:28;;;;;;;7.53;5.70;;;;;;;10.09;82.68;100143.98;1691474;82;21135;-71
2021/05/16 01:17:58;;;;;;;9.28;6.25;;;;;;;10.06;82.71;100142.64;1725586;82;21033;-71
2021/05/16 01:20:31;;;;;;;9.58;6.08;;;;;;;10.07;82.79;100151.47;1707123;82;21096;-71
2021/05/16 01:23:04;;;;;;;7.65;5.95;;;;;;;10.08;82.85;100152.53;1704649;81;21084;-71
2021/05/16 01:25:35;;;;;;;8.15;5.90;;;;;;;10.08;82.90;100151.20;1716036;82;21109;-72
2021/05/16 01:28:01;;;;;;;7.75;6.67;;;;;;;10.07;82.89;100150.94;1714122;82;21045;-71
2021/05/16 01:30:30;;;;;;;8.75;6.45;;;;;;;10.09;83.07;100153.33;1715085;82;21106;-69
2021/05/16 01:32:57;;;;;;;7.00;6.05;;;;;;;10.13;83.21;100146.93;1730630;82;21741;-71
2021/05/16 01:35:25;;;;;;;6.25;5.40;;;;;;;10.16;83.28;100150.41;1712234;81;20982;-71
2021/05/16 01:37:51;;;;;;;8.28;5.55;;;;;;;10.15;83.21;100153.61;1723313;82;21710;-71
2021/05/16 01:40:20;;;;;;;6.40;5.70;;;;;;;10.15;83.05;100156.81;1721943;82;21073;-71
2021/05/16 01:42:51;;;;;;;7.22;5.75;;;;;;;10.15;82.98;100160.82;1729661;82;21117;-71
2021/05/16 01:45:23;;;;;;;7.03;5.37;;;;;;;10.10;82.89;100166.42;1719319;81;21117;-71
2021/05/16 01:47:50;;;;;;;;;;;;;;;10.07;82.79;100161.61;1719100;82;21129;-71
2021/05/16 01:50:19;;;;;;;7.45;5.53;;;;;;;10.04;82.72;100165.34;1721090;82;20642;-72
2021/05/16 01:52:47;;;;;;;6.50;5.53;;;;;;;9.96;82.69;100165.83;1704318;84;21089;-70
2021/05/16 01:55:16;;;;;;;5.53;4.72;;;;;;;9.90;82.69;100169.00;1715268;82;21757;-71
2021/05/16 01:57:44;;;;;;;6.15;5.33;;;;;;;9.86;82.70;100169.27;1710390;82;21077;-71
2021/05/16 02:00:26;;;;;;;6.60;4.78;;;;;;;9.82;82.72;100167.66;1718082;82;21389;-70
2021/05/16 02:02:54;;;;;;;5.15;4.62;;;;;;;9.80;82.76;100167.64;1720107;82;21097;-70
2021/05/16 02:05:24;;;;;;;5.37;4.47;;;;;;;9.73;82.74;100161.75;1719305;82;21105;-71
2021/05/16 02:07:51;;;;;;;5.17;4.50;;;;;;;9.62;82.77;100168.38;1727276;82;21873;-71
2021/05/16 02:10:19;;;;;;;5.97;4.97;;;;;;;9.53;82.90;100169.13;1724747;82;21695;-70
2021/05/16 02:12:47;;;;;;;5.37;4.65;;;;;;;9.40;82.99;100169.05;1703978;82;21113;-71
2021/05/16 02:15:14;;;;;;;8.20;4.28;;;;;;;9.31;83.24;100177.26;1700083;82;22492;-70
2021/05/16 02:17:41;;;;;;;4.90;4.40;;;;;;;9.29;83.42;100180.73;1711445;82;21069;-70
2021/05/16 02:20:14;;;;;;;9.30;5.62;;;;;;;9.31;83.55;100181.26;1713805;82;21090;-71
2021/05/16 02:22:42;;;;;;;5.95;5.35;;;;;;;9.33;83.65;100173.82;1728202;82;21572;-71
2021/05/16 02:25:11;;;;;;;5.85;5.10;;;;;;;9.39;83.95;100180.79;1722353;82;21101;-71
2021/05/16 02:27:39;;;;;;;7.95;5.70;;;;;;;9.44;84.25;100175.47;1707524;82;21089;-71
2021/05/16 02:30:09;;;;;;;6.83;5.90;;;;;;;9.52;84.48;100178.99;1713141;82;21623;-71
2021/05/16 02:32:38;;;;;;;7.47;5.25;;;;;;;9.60;84.62;100180.36;1712878;82;21078;-70
2021/05/16 02:35:09;;;;;;;7.80;5.67;;;;;;;9.67;84.73;100182.78;1704113;82;21092;-72
2021/05/16 02:37:38;;;;;;;6.20;5.22;;;;;;;9.70;84.68;100183.60;1714178;82;21057;-72
2021/05/16 02:40:06;;;;;;;9.85;7.35;;;;;;;9.75;84.70;100186.30;1707560;82;21093;-72
2021/05/16 02:42:33;;;;;;;6.30;5.47;;;;;;;9.81;84.75;100192.73;1706051;82;21053;-71
2021/05/16 02:45:00;;;;;;;6.10;5.47;;;;;;;9.88;84.83;100189.03;1687572;82;21102;-71
2021/05/16 02:47:27;;;;;;;6.00;5.40;;;;;;;9.95;84.80;100193.58;1712267;81;21612;-72
2021/05/16 02:49:54;;;;;;;7.50;5.10;;;;;;;10.01;84.78;100198.67;1711520;82;21137;-71
2021/05/16 02:52:21;;;;;;;7.83;5.30;;;;;;;10.07;84.72;100188.30;1692159;84;21072;-72
2021/05/16 02:54:48;;;;;;;6.53;5.30;;;;;;;10.12;84.64;100193.37;1612313;85;21081;-72
2021/05/16 02:57:15;;;;;;;6.33;5.72;;;;;;;10.16;84.68;100195.23;1651300;84;22062;-72
2021/05/16 02:59:41;;;;;;;5.70;5.10;;;;;;;10.24;84.72;100201.95;1708393;82;21133;-71
2021/05/16 03:02:09;;;;;;;5.70;5.10;;;;;;;10.31;84.72;100209.20;1710607;82;21113;-71
2021/05/16 03:04:36;;;;;;;8.15;5.40;;;;;;;10.40;84.66;100210.30;1703795;84;21073;-71
2021/05/16 03:07:03;;;;;;;7.67;5.37;;;;;;;10.47;84.68;100214.84;1716947;82;21066;-72
2021/05/16 03:09:34;;;;;;;7.03;6.33;;;;;;;10.53;84.69;100212.45;1711776;82;21092;-71
2021/05/16 03:12:00;;;;;;;6.75;5.97;;;;;;;10.61;84.75;100215.67;1711426;82;21133;-71
2021/05/16 03:14:28;;;;;;;7.40;6.60;;;;;;;10.71;84.79;100218.34;1731980;82;21169;-71
2021/05/16 03:16:58;;;;;;;7.62;6.30;;;;;;;10.80;84.85;100220.22;1716480;82;20999;-71
2021/05/16 03:19:26;;;;;;;6.78;6.00;;;;;;;10.87;84.85;100217.83;1718626;82;21600;-72
2021/05/16 03:21:53;;;;;;;7.40;6.30;;;;;;;10.95;84.87;100223.42;1725271;82;21085;-72
2021/05/16 03:24:21;;;;;;;8.75;6.47;;;;;;;11.05;84.95;100219.95;1720630;82;21132;-71
2021/05/16 03:26:49;;;;;;;6.40;5.60;;;;;;;11.16;84.97;100210.87;1716887;81;21132;-72
2021/05/16 03:29:16;;;;;;;7.33;5.80;;;;;;;11.23;84.96;100213.27;1715095;82;21045;-72
2021/05/16 03:31:42;;;;;;;7.00;6.03;;;;;;;11.26;84.87;100200.16;1715957;82;21109;-72
2021/05/16 03:34:09;;;;;;;6.85;6.15;;;;;;;11.27;84.88;100204.42;1738673;82;21132;-72
2021/05/16 03:36:37;;;;;;;8.43;6.70;;;;;;;11.34;84.93;100204.69;1725862;81;21148;-72
2021/05/16 03:39:07;;;;;;;8.35;6.22;;;;;;;11.33;84.87;100205.23;1721782;82;21082;-72
2021/05/16 03:41:34;;;;;;;8.37;6.80;;;;;;;11.38;84.94;100214.56;1731846;82;21205;-71
2021/05/16 03:44:01;;;;;;;8.03;6.50;;;;;;;11.49;84.98;100214.82;1696806;82;21135;-72
2021/05/16 03:46:28;;;;;;;8.23;6.70;;;;;;;11.61;84.95;100218.52;1726331;81;22595;-72
2021/05/16 03:48:56;;;;;;;7.17;6.47;;;;;;;11.74;84.93;100223.84;1715295;82;21949;-71
2021/05/16 03:51:25;;;;;;;7.53;6.83;;;;;;;11.84;84.85;100218.48;1720259;82;21264;-70
2021/05/16 03:53:52;;;;;;;8.40;6.70;;;;;;;11.92;84.74;100223.82;1720470;82;21311;-71
2021/05/16 03:56:21;;;;;;;7.83;6.80;;;;;;;12.05;84.75;100225.11;1709023;82;21296;-73
2021/05/16 03:58:48;;;;;;;8.30;6.20;;;;;;;12.16;84.69;100233.34;1717128;82;21416;-72
2021/05/16 04:01:16;;;;;;;11.03;6.90;;;;;;;12.32;84.71;100235.41;1722869;82;21371;-72
2021/05/16 04:03:43;;;;;;;8.10;6.30;;;;;;;12.48;84.66;100238.27;1713735;82;21171;-71
2021/05/16 04:06:10;;;;;;;9.27;6.70;;;;;;;12.61;84.36;100235.52;1710368;82;21256;-73
2021/05/16 04:08:37;;;;;;;7.13;6.40;;;;;;;12.72;84.11;100240.26;1716138;82;21338;-71
2021/05/16 04:11:04;;;;;;;7.37;5.80;;;;;;;12.84;83.97;100239.38;1708493;82;21441;-72
2021/05/16 04:13:31;;;;;;;6.87;6.13;;;;;;;12.98;83.87;100232.28;1716166;82;21292;-70
2021/05/16 04:15:59;;;;;;;8.37;6.50;;;;;;;13.08;83.57;100226.84;1713089;82;21288;-71
2021/05/16 04:18:27;;;;;;;7.57;6.63;;;;;;;13.18;83.32;100223.27;1714715;82;21332;-72
2021/05/16 04:20:54;;;;;;;7.63;6.53;;;;;;;13.30;83.06;100230.98;1717746;82;21153;-72
2021/05/16 04:23:21;;;;;;;9.10;6.53;;;;;;;13.40;82.76;100228.19;1708589;82;21874;-72
2021/05/16 04:25:49;;;;;;;7.53;6.30;;;;;;;13.52;82.71;100218.40;1724361;82;21368;-72
2021/05/16 04:28:15;;;;;;;7.93;6.80;;;;;;;13.66;82.51;100216.66;1713895;81;21339;-72
2021/05/16 04:30:43;;;;;;;8.43;7.03;;;;;;;13.80;82.21;100218.89;1712139;82;21410;-71
2021/05/16 04:33:09;;;;;;;7.90;6.63;;;;;;;13.91;81.88;100212.06;1719578;82;21375;-72
2021/05/16 04:35:37;;;;;;;7.80;6.90;;;;;;;14.01;81.55;100210.04;1702601;84;21350;-73
2021/05/16 04:38:03;;;;;;;8.00;7.20;;;;;;;14.12;81.21;100210.73;1712743;81;21378;-72
2021/05/16 04:40:31;;;;;;;8.63;7.73;;;;;;;14.21;80.74;100207.63;1716849;82;21380;-71
2021/05/16 04:42:58;;;;;;;8.23;7.40;;;;;;;14.36;80.36;100208.53;1717195;82;21933;-71
2021/05/16 04:45:24;;;;;;;10.03;7.60;;;;;;;14.44;79.96;100201.14;1707653;82;21318;-70
2021/05/16 04:47:51;;;;;;;9.20;7.60;;;;;;;14.53;79.61;100197.53;1710515;82;21449;-72
2021/05/16 04:50:18;;;;;;;9.97;7.93;;;;;;;14.78;78.31;100207.11;1720535;82;21574;-72
2021/05/16 04:52:46;;;;;;;8.77;7.27;;;;;;;14.78;78.31;100207.11;1708892;82;21930;-71
2021/05/16 04:55:14;;;;;;;8.73;7.70;;;;;;;14.92;77.72;100207.15;1705954;82;22131;-71
2021/05/16 04:57:41;;;;;;;8.93;7.40;;;;;;;15.05;76.85;100209.63;1706444;82;22680;-72
2021/05/16 05:00:10;;;;;;;9.30;8.30;;;;;;;15.14;76.75;100209.77;1713537;82;21557;-72
2021/05/16 05:02:40;;;;;;;8.27;7.30;;;;;;;15.23;76.42;100199.37;1711552;82;21763;-72
2021/05/16 05:05:11;;;;;;;9.03;7.43;;;;;;;15.32;75.53;100201.36;1730860;82;21866;-71
2021/05/16 05:07:37;;;;;;;11.67;8.97;;;;;;;15.33;75.55;100190.28;1719263;82;22308;-72
2021/05/16 05:10:05;;;;;;;10.60;9.47;;;;;;;15.45;75.19;100191.95;1713258;82;21875;-72
2021/05/16 05:12:32;;;;;;;11.93;9.83;;;;;;;15.56;74.29;100187.71;1711706;82;22334;-72
2021/05/16 05:14:59;;;;;;;11.33;9.97;;;;;;;15.66;73.42;100179.44;1711921;82;21844;-70
2021/05/16 05:17:26;;;;;;;13.23;10.20;;;;;;;15.77;72.80;100174.70;1712122;82;21803;-71
2021/05/16 05:19:53;;;;;;;12.53;9.37;;;;;;;15.88;72.35;100165.30;1712436;82;21772;-73
2021/05/16 05:22:20;;;;;;;10.93;9.77;;;;;;;16.02;72.26;100169.30;1712078;82;21733;-71
2021/05/16 05:24:47;;;;;;;10.80;8.83;;;;;;;16.13;71.90;100170.69;1704640;82;21773;-71
2021/05/16 05:27:16;;;;;;;12.03;10.00;;;;;;;16.25;71.51;100170.14;1711361;82;22972;-71
2021/05/16 05:29:42;;;;;;;10.13;8.90;;;;;;;16.30;70.98;100167.34;1719208;81;21810;-71
2021/05/16 05:32:10;;;;;;;10.13;8.67;;;;;;;16.33;70.90;100164.84;1716435;82;21889;-73
2021/05/16 05:34:38;;;;;;;12.67;8.63;;;;;;;16.45;70.96;100167.53;1708630;82;21749;-72
2021/05/16 05:37:05;;;;;;;10.37;8.87;;;;;;;16.59;70.87;100169.64;1707250;82;21901;-70
2021/05/16 05:39:32;;;;;;;11.17;9.93;;;;;;;16.75;70.71;100172.77;1713641;82;21767;-71
2021/05/16 05:42:00;;;;;;;13.53;10.60;;;;;;;16.89;70.16;100174.86;1713057;82;21109;-71
2021/05/16 05:44:26;;;;;;;12.13;10.67;;;;;;;17.00;69.84;100174.84;1711288;82;21079;-72
2021/05/16 05:46:53;;;;;;;11.60;10.10;;;;;;;17.14;69.55;100170.70;1710949;82;22611;-72
2021/05/16 05:49:22;;;;;;;12.33;10.57;;;;;;;17.27;69.18;100171.71;1723182;82;21157;-71
2021/05/16 05:51:50;;;;;;;11.90;10.67;;;;;;;17.39;69.07;100169.79;1714988;82;21164;-72
2021/05/16 05:54:17;;;;;;;12.73;11.40;;;;;;;17.51;68.77;100170.80;1709591;82;21069;-71
2021/05/16 05:56:43;;;;;;;12.80;10.90;;;;;;;17.62;67.99;100178.61;1709070;82;21663;-71
2021/05/16 05:59:10;;;;;;;12.87;11.57;;;;;;;17.73;67.61;100181.25;1723356;82;21061;-72
2021/05/16 06:01:37;;;;;;;14.07;11.40;;;;;;;17.81;67.25;100169.72;1711558;82;21224;-71
2021/05/16 06:04:04;;;;;;;12.00;10.80;;;;;;;17.89;66.18;100171.63;1712380;82;21049;-72
2021/05/16 06:06:30;;;;;;;11.67;10.47;;;;;;;17.98;65.82;100174.35;1717797;82;21711;-71
2021/05/16 06:08:57;;;;;;;12.53;10.80;;;;;;;18.09;65.56;100169.43;1717379;82;21089;-72
2021/05/16 06:11:24;;;;;;;12.00;10.63;;;;;;;18.21;65.46;100166.91;1718014;82;21117;-71
2021/05/16 06:13:50;;;;;;;11.07;9.87;;;;;;;18.30;65.05;100169.06;1714005;82;21649;-73
2021/05/16 06:16:17;;;;;;;10.20;9.20;;;;;;;18.40;64.45;100176.06;1733130;82;21093;-72
2021/05/16 06:18:45;;;;;;;11.47;9.83;;;;;;;18.49;63.99;100173.59;1718062;81;21065;-72
2021/05/16 06:21:11;;;;;;;9.97;8.97;;;;;;;18.62;63.49;100179.92;1719260;81;21034;-73
2021/05/16 06:24:38;;;;;;;9.67;8.17;;;;;;;18.73;63.03;100173.67;1710121;82;21089;-71
2021/05/16 06:26:16;;;;;;;8.63;7.73;;;;;;;18.86;62.71;100176.75;1721961;82;21140;-71
2021/05/16 06:28:43;;;;;;;6.93;5.87;;;;;;;18.99;62.49;100176.33;1714893;82;21109;-71
2021/05/16 06:31:10;;;;;;;6.67;4.97;;;;;;;19.11;61.40;100172.37;1720244;82;21097;-71
2021/05/16 06:33:37;;;;;;;6.27;5.13;;;;;;;19.25;60.25;100177.61;1714888;82;21105;-71
2021/05/16 06:36:04;;;;;;;6.57;4.80;;;;;;;19.40;59.11;100178.97;1709002;82;21767;-71
2021/05/16 06:38:31;;;;;;;6.00;4.90;;;;;;;19.49;58.78;100186.50;1712824;82;21783;-71
2021/05/16 06:40:57;;;;;;;5.93;4.40;;;;;;;19.63;58.22;100184.91;1716032;82;21073;-71
2021/05/16 06:43:24;;;;;;;5.30;4.33;;;;;;;19.73;57.43;100176.44;1712957;82;21075;-70
2021/05/16 06:45:52;;;;;;;6.03;4.63;;;;;;;19.87;57.52;100182.97;1714880;82;21124;-70
2021/05/16 06:48:19;;;;;;;6.90;5.87;;;;;;;20.01;57.49;100184.11;1713434;82;21065;-71
2021/05/16 06:50:45;;;;;;;6.90;5.83;;;;;;;20.17;57.81;100182.39;1711387;82;21081;-72
2021/05/16 06:53:13;;;;;;;5.43;4.40;;;;;;;20.28;57.48;100184.93;1704642;82;21129;-71
2021/05/16 06:55:40;;;;;;;5.20;3.63;;;;;;;20.33;56.69;100181.22;1715951;82;21146;-73
2021/05/16 06:58:07;;;;;;;4.50;3.20;;;;;;;20.37;55.41;100178.09;1709512;82;21060;-72
2021/05/16 07:00:33;;;;;;;5.47;3.60;;;;;;;20.39;54.37;100176.61;1710078;82;21102;-71
2021/05/16 07:03:00;;;;;;;5.90;3.27;;;;;;;20.41;54.75;100178.22;1713594;82;22489;-70
2021/05/16 07:05:27;;;;;;;5.97;3.87;;;;;;;20.47;54.87;100172.26;1724841;82;21132;-71
2021/05/16 07:07:54;;;;;;;4.93;3.60;;;;;;;20.58;55.18;100179.45;1715869;82;21100;-70
2021/05/16 07:10:22;;;;;;;4.07;3.20;;;;;;;20.68;55.09;100183.10;1726167;81;21926;-72
2021/05/16 07:12:49;;;;;;;5.00;3.23;;;;;;;20.78;54.66;100179.17;1714401;81;21124;-71
2021/05/16 07:15:16;;;;;;;3.83;2.83;;;;;;;20.86;53.06;100178.28;1704107;82;21600;-72
2021/05/16 07:17:43;;;;;;;6.87;2.93;;;;;;;20.94;52.45;100180.13;1713022;82;21124;-71
2021/05/16 07:20:11;;;;;;;4.00;2.80;;;;;;;21.05;51.95;100185.91;1711649;82;21085;-71
2021/05/16 07:22:38;;;;;;;3.53;2.83;;;;;;;21.12;51.11;100181.29;1677381;84;21643;-71
2021/05/16 07:25:06;;;;;;;4.03;2.07;;;;;;;21.16;50.46;100186.27;1681992;84;21624;-71
2021/05/16 07:27:32;;;;;;;3.33;2.00;;;;;;;21.23;49.72;100196.83;1673708;84;21820;-71
2021/05/16 07:29:59;;;;;;;3.73;1.90;;;;;;;21.29;49.22;100194.69;1676326;84;21141;-71
2021/05/16 07:32:26;;;;;;;1.83;1.10;;;;;;;21.39;48.97;100193.45;1677495;83;21174;-71
2021/05/16 07:34:54;;;;;;;2.60;1.47;;;;;;;21.49;46.73;100181.60;1674705;84;21117;-71
2021/05/16 07:37:21;;;;;;;2.93;1.60;;;;;;;21.55;45.91;100180.78;1678853;84;20997;-70
2021/05/16 07:39:48;;;;;;;3.30;1.70;;;;;;;21.59;46.30;100184.43;1689714;84;21258;-70
2021/05/16 07:42:15;;;;;;;3.63;1.50;;;;;;;21.63;46.01;100177.75;1677132;84;21199;-71
2021/05/16 07:44:43;;;;;;;5.43;1.70;;;;;;;21.63;45.53;100175.81;1669918;84;21174;-72
2021/05/16 07:47:10;;;;;;;4.70;2.17;;;;;;;21.66;45.69;100183.86;1670146;84;21153;-71
2021/05/16 07:49:36;;;;;;;5.77;2.50;;;;;;;21.70;47.80;100180.11;1675386;84;21737;-70
2021/05/16 07:52:03;;;;;;;3.70;1.90;;;;;;;21.72;47.82;100180.58;1709918;81;21144;-71
2021/05/16 07:54:31;;;;;;;5.30;1.77;;;;;;;21.81;47.30;100172.28;1705649;83;21169;-71
2021/05/16 07:56:58;;;;;;;7.17;2.00;;;;;;;21.94;45.34;100169.77;1713786;83;21113;-70
2021/05/16 07:59:28;;;;;;;6.87;2.00;;;;;;;22.05;45.53;100166.59;1699776;83;21090;-70
2021/05/16 08:01:54;;;;;;;4.67;1.53;;;;;;;22.18;45.07;100173.63;1704238;81;21071;-71
2021/05/16 08:04:22;;;;;;;4.53;1.80;;;;;;;22.29;44.72;100167.91;1716729;83;21615;-71
2021/05/16 08:06:49;;;;;;;2.33;1.33;;;;;;;22.34;44.18;100166.31;1707222;83;21073;-70
2021/05/16 08:09:16;;;;;;;4.87;1.30;;;;;;;22.44;44.76;100160.92;1716494;82;21050;-70
2021/05/16 08:11:43;;;;;;;2.40;1.20;;;;;;;22.59;43.79;100159.40;1703412;82;21169;-71
2021/05/16 08:14:10;;;;;;;3.77;1.50;;;;;;;22.68;42.19;100155.38;1707582;83;21034;-70
2021/05/16 08:16:37;;;;;;;4.53;1.47;;;;;;;22.75;41.56;100151.27;1711029;83;21343;-75
2021/05/16 08:19:06;;;;;;;4.33;1.37;;;;;;;22.78;41.83;100157.38;1707427;83;21588;-71
2021/05/16 08:21:35;;;;;;;3.80;1.50;;;;;;;22.87;41.79;100154.72;1713601;83;21180;-71
2021/05/16 08:24:06;;;;;;;3.87;1.70;;;;;;;22.98;41.86;100168.64;1708516;82;21462;-71
2021/05/16 08:26:34;;;;;;;3.13;1.20;;;;;;;23.11;42.37;100163.33;1704570;83;21588;-71
2021/05/16 08:29:01;;;;;;;2.40;1.20;;;;;;;23.21;41.01;100157.14;1705666;82;21812;-70
2021/05/16 08:31:28;;;;;;;2.33;0.93;;;;;;;23.29;40.37;100161.61;1703452;83;21723;-71
2021/05/16 08:33:54;;;;;;;3.60;1.20;;;;;;;23.39;40.65;100163.22;1710360;81;21065;-71
2021/05/16 08:36:23;;;;;;;2.77;1.10;;;;;;;23.38;38.97;100158.14;1713578;82;21145;-71
2021/05/16 08:38:51;;;;;;;3.83;1.13;;;;;;;23.30;40.20;100161.27;1720171;82;22280;-70
2021/05/16 08:41:17;;;;;;;3.07;1.10;;;;;;;23.37;40.61;100153.84;1715264;82;21691;-71
2021/05/16 08:43:44;;;;;;;1.77;1.10;;;;;;;23.53;41.09;100152.47;1715054;81;21046;-70
2021/05/16 08:46:11;;;;;;;2.30;1.00;;;;;;;23.65;40.80;100151.76;1718230;82;21152;-71
2021/05/16 08:48:39;;;;;;;1.50;0.90;;;;;;;23.74;40.30;100149.45;1722409;81;21171;-70
2021/05/16 08:51:06;;;;;;;2.40;0.97;;;;;;;23.81;39.64;100146.88;1724683;82;21093;-71
2021/05/16 08:53:34;;;;;;;1.00;0.70;;;;;;;23.84;39.29;100145.59;1720379;82;21087;-70
2021/05/16 08:56:06;;;;;;;1.27;0.83;;;;;;;23.84;39.67;100145.59;1714423;82;21081;-70
2021/05/16 08:58:32;;;;;;;;;;;;;;;23.85;39.22;100144.44;1714686;82;21089;-71
2021/05/16 09:00:59;;;;;;;1.67;0.70;;;;;;;23.86;38.59;100138.44;1660946;85;20263;-69
2021/05/16 09:03:26;;;;;;;1.87;0.90;;;;;;;23.85;37.52;100133.53;1680756;84;21124;-70
2021/05/16 09:05:54;;;;;;;0.70;0.70;;;;;;;23.86;37.48;100143.89;1676735;84;21156;-70
2021/05/16 09:08:25;;;;;;;1.63;0.83;;;;;;;23.84;36.99;100130.59;1678914;84;21176;-70
2021/05/16 09:10:56;;;;;;;;;;;;;;;23.85;37.27;100135.47;1669505;84;21046;-69
2021/05/16 09:13:36;;;;;;;1.70;0.80;;;;;;;23.90;37.77;100133.05;1680199;83;20297;-71
2021/05/16 09:16:12;;;;;;;1.00;0.70;;;;;;;23.93;37.62;100122.80;1675688;84;21188;-72
2021/05/16 09:18:51;;;;;;;1.40;0.83;;;;;;;24.00;38.60;100120.99;1685241;84;21129;-71
2021/05/16 09:21:32;;;;;;;0.93;0.70;;;;;;;24.05;38.76;100119.91;1675501;83;21620;-71
2021/05/16 09:24:06;;;;;;;1.97;0.70;;;;;;;24.03;37.85;100119.50;1680973;84;21100;-70
2021/05/16 09:26:56;;;;;;;1.50;0.90;;;;;;;24.04;37.38;100119.13;1670116;84;21638;-70
2021/05/16 09:29:40;;;;;;;1.43;0.60;;;;;;;24.19;36.78;100119.43;1669791;84;21101;-72
2021/05/16 09:32:03;;;;;;;2.60;0.60;;;;;;;24.36;37.23;100121.71;1665561;84;21611;-73
2021/05/16 09:34:30;;;;;;;1.07;0.80;;;;;;;24.52;36.69;100114.83;1674052;83;21122;-71
2021/05/16 09:36:58;;;;;;;1.43;0.80;;;;;;;24.66;36.45;100120.55;1676252;84;21690;-73
2021/05/16 09:39:30;;;;;;;0.90;0.77;;;;;;;24.71;36.02;100118.08;1675626;84;21702;-70
2021/05/16 09:42:15;;;;;;;1.47;0.73;;;;;;;24.72;36.92;100125.14;1680041;84;21739;-71
2021/05/16 09:44:46;;;;;;;0.90;0.70;;;;;;;24.84;36.23;100118.70;1681525;84;21274;-72
2021/05/16 09:47:22;;;;;;;1.77;0.70;;;;;;;24.95;36.47;100125.16;1673374;84;21252;-72
2021/05/16 09:49:51;;;;;;;2.03;0.70;;;;;;;25.02;36.24;100123.31;1667039;84;21111;-72
2021/05/16 09:52:34;;;;;;;1.37;0.80;;;;;;;25.10;35.78;100120.11;1667687;84;21120;-71
2021/05/16 09:55:09;;;;;;;2.35;0.80;;;;;;;25.15;35.79;100120.43;1678501;84;21792;-71
2021/05/16 09:57:41;;;;;;;1.13;0.97;;;;;;;25.19;36.29;100118.53;1678536;84;21121;-72
2021/05/16 10:00:12;;;;;;;1.27;0.80;;;;;;;25.26;36.45;100122.16;1668815;84;21106;-72
2021/05/16 10:02:39;;;;;;;2.70;0.70;;;;;;;25.36;35.97;100113.12;1668358;84;21176;-72
2021/05/16 10:05:09;;;;;;;1.67;0.70;;;;;;;25.43;35.45;100104.45;1665232;84;21643;-74
2021/05/16 10:07:40;;;;;;;1.97;0.73;;;;;;;25.53;36.07;100096.19;1688110;84;21135;-72
2021/05/16 10:10:08;;;;;;;0.83;0.63;;;;;;;25.53;35.18;100092.67;1677503;84;21140;-71
2021/05/16 10:12:40;;;;;;;3.50;0.80;;;;;;;25.52;35.47;100089.73;1672447;84;21384;-72
2021/05/16 10:15:14;;;;;;;1.43;0.60;;;;;;;25.59;35.66;100084.36;1669896;84;21175;-73
2021/05/16 10:17:45;;;;;;;1.50;0.50;;;;;;;25.65;34.73;100080.14;1671667;84;22403;-71
2021/05/16 10:20:15;;;;;;;1.27;0.70;;;;;;;25.64;35.02;100073.11;1672307;84;21165;-73
2021/05/16 10:22:58;;;;;;;1.10;0.80;;;;;;;25.71;34.80;100072.62;1713623;82;21202;-74
2021/05/16 10:25:44;;;;;;;0.87;0.70;;;;;;;25.80;34.33;100067.42;1711986;81;21117;-72
2021/05/16 10:28:15;;;;;;;1.03;0.50;;;;;;;25.85;34.17;100067.14;1728523;82;21089;-72
2021/05/16 10:31:01;;;;;;;1.10;0.60;;;;;;;25.93;33.80;100069.61;1711859;82;21030;-72
2021/05/16 10:33:38;;;;;;;1.50;0.77;;;;;;;25.96;32.89;100074.33;1706487;82;21699;-74
2021/05/16 10:36:05;;;;;;;1.70;0.60;;;;;;;26.03;32.50;100067.34;1718193;82;21071;-73
2021/05/16 10:38:37;;;;;;;0.60;0.60;;;;;;;26.06;33.14;100065.23;1711461;82;21161;-72
2021/05/16 10:41:24;;;;;;;;;;;;;;;26.13;34.21;100067.48;1722943;82;20982;-72
2021/05/16 10:44:30;;;;;;;1.77;0.70;;;;;;;26.27;33.18;100061.95;1717488;82;21041;-70
2021/05/16 10:46:57;;;;;;;1.37;0.67;;;;;;;26.31;33.29;100059.45;1711008;82;21077;-69
2021/05/16 10:49:30;;;;;;;1.53;0.80;;;;;;;26.30;32.29;100051.63;1711399;82;21037;-69
2021/05/16 10:51:57;;;;;;;0.70;0.60;;;;;;;26.22;32.93;100053.48;1711474;82;20986;-70
2021/05/16 10:54:31;;;;;;;1.30;0.60;;;;;;;26.15;32.32;100051.45;1709984;81;21069;-70
2021/05/16 10:57:23;;;;;;;1.47;0.67;;;;;;;26.18;33.26;100049.93;1714184;82;20946;-70
2021/05/16 10:59:47;;;;;;;0.70;0.50;;;;;;;26.27;33.60;100047.69;1718388;82;20990;-69
2021/05/16 11:02:59;;;;;;;1.97;0.70;;;;;;;26.38;32.90;100030.77;1595443;81;10000213;-72
2021/05/16 11:05:55;;;;;;;1.25;0.80;;;;;;;26.43;33.56;100030.44;1713172;81;21046;-72
2021/05/16 11:08:28;;;;;;;1.07;0.60;;;;;;;26.42;34.07;100028.06;1712755;82;21184;-72
2021/05/16 11:10:55;;;;;;;1.83;0.70;;;;;;;26.47;34.31;100022.84;1709163;82;21188;-72
2021/05/16 11:13:28;;;;;;;1.87;0.70;;;;;;;26.60;34.23;100018.68;1708096;82;21603;-74
2021/05/16 11:15:58;;;;;;;1.80;0.60;;;;;;;26.72;33.88;100023.87;1713545;82;21133;-74
2021/05/16 11:18:24;;;;;;;1.43;0.80;;;;;;;26.80;33.41;100026.86;1713732;82;21213;-70
2021/05/16 11:21:06;;;;;;;1.30;0.80;;;;;;;26.80;32.62;100017.27;1713296;82;21588;-72
2021/05/16 11:23:40;;;;;;;0.50;0.50;;;;;;;26.72;32.98;100013.48;1705064;82;21081;-71
2021/05/16 11:26:11;;;;;;;1.23;0.53;;;;;;;26.71;32.97;100013.28;1707955;81;21109;-73
2021/05/16 11:28:45;;;;;;;1.00;0.50;;;;;;;26.71;32.12;100011.91;1713941;82;21432;-73
2021/05/16 11:31:18;;;;;;;1.53;0.60;;;;;;;26.68;30.75;100017.56;1711636;82;21077;-73
2021/05/16 11:33:50;;;;;;;1.37;0.63;;;;;;;26.55;30.84;100010.21;1721299;82;21158;-74